Craigmyle, Canada
Current Conditions -  °F | °C
As of 11:00 PM on Tuesday 27 Jan 2015 (Local Time) from CYQF Reporting Station
Haze Haze  
Wind Chill: 23°   Ceiling: Unl
Heat Index: 28°   Visibility: 3mi
Dew Point: 27°   Wind: 5mph
Humidity: 93%   Direction: 20°NNE
Pressure: 29.88"   Gusts: NA
Location:  51.67°N, 112.23°W
Report Text: CYQF 280600Z 02004KT 310V040 3SM BR FEW004 SCT100 M02/M03 A2988 RMK SF2AC2 SLP167
Loading
Personal Weather Stations






























Interactive Weather Map New forecast layout! Learn more

10-Day Weather Forecast

Advertisements
Track Severe Weather on mobile